Terminal Aerodrome Forecast
Issued by NWS

Home | Current Version | Previous Version | Text Only | Print | Product List | Glossary Off
Versions: 1 2 3 4 5 6 7 8 9 10 11 12 13 14 15 16 17 18

000
FTUS43 KABR 251800 AAA
TAFPIR
TAF AMD
KPIR 251842Z 2519/2618 31013KT P6SM OVC025
     FM252300 20006KT P6SM BKN100
     FM261000 30012KT P6SM BKN250=

USA.gov is the U.S. government's official web portal to all federal, state and local government web resources and services.